createdAt,value
2023-01-22T00:02:14.375Z,3.28
2023-01-22T00:04:41.133Z,3.30
2023-01-22T00:07:08.148Z,3.29
2023-01-22T00:09:34.925Z,3.29
2023-01-22T00:12:01.721Z,3.27
2023-01-22T00:14:28.647Z,3.29
2023-01-22T00:16:55.728Z,3.33
2023-01-22T00:19:22.541Z,3.36
2023-01-22T00:21:49.279Z,3.33
2023-01-22T00:24:16.011Z,3.27
2023-01-22T00:26:42.820Z,3.25
2023-01-22T00:29:09.631Z,3.26
2023-01-22T00:31:37.523Z,3.26
2023-01-22T00:34:04.812Z,3.29
2023-01-22T00:36:31.592Z,3.31
2023-01-22T00:38:58.411Z,3.34
2023-01-22T00:41:25.183Z,3.34
2023-01-22T00:43:53.052Z,3.35
2023-01-22T00:46:20.287Z,3.40
2023-01-22T00:48:49.461Z,3.35
2023-01-22T00:51:16.640Z,3.27
2023-01-22T00:53:43.892Z,3.32
2023-01-22T00:56:12.107Z,3.36
2023-01-22T00:58:38.905Z,3.39
2023-01-22T01:01:06.038Z,3.38
2023-01-22T01:03:33.458Z,3.42
2023-01-22T01:06:10.721Z,3.39
2023-01-22T01:08:39.525Z,3.34
2023-01-22T01:11:08.869Z,3.33
2023-01-22T01:13:42.921Z,3.35
2023-01-22T01:16:30.305Z,3.34
2023-01-22T01:19:02.553Z,3.33
2023-01-22T01:21:29.687Z,3.33
2023-01-22T01:23:57.948Z,3.36
2023-01-22T01:26:25.718Z,3.29
2023-01-22T01:28:52.752Z,3.29
2023-01-22T01:31:22.619Z,3.27
2023-01-22T01:33:49.986Z,3.28
2023-01-22T01:36:40.320Z,3.26
2023-01-22T01:39:09.731Z,3.25
2023-01-22T01:41:36.418Z,3.24
2023-01-22T01:44:18.822Z,3.21
2023-01-22T01:46:54.783Z,3.17
2023-01-22T01:49:30.311Z,3.17
2023-01-22T01:52:00.856Z,3.17
2023-01-22T01:54:28.262Z,3.12
2023-01-22T01:57:00.891Z,3.14
2023-01-22T01:59:27.716Z,3.06
2023-01-22T02:01:55.857Z,3.07
2023-01-22T02:04:24.043Z,3.03
2023-01-22T02:06:50.909Z,3.03
2023-01-22T02:09:17.736Z,3.00
2023-01-22T02:11:44.762Z,2.90
2023-01-22T02:14:17.736Z,2.91
2023-01-22T02:16:44.977Z,2.92
2023-01-22T02:19:11.778Z,2.93
2023-01-22T02:21:45.156Z,2.92
2023-01-22T02:24:14.627Z,2.88
2023-01-22T02:26:42.757Z,2.83
2023-01-22T02:29:11.625Z,2.81
2023-01-22T02:31:39.434Z,2.68
2023-01-22T02:34:07.193Z,2.64
2023-01-22T02:36:35.171Z,2.58
2023-01-22T02:39:01.981Z,2.50
2023-01-22T02:41:28.757Z,2.42
2023-01-22T02:43:55.560Z,2.36
2023-01-22T02:46:22.337Z,2.36
2023-01-22T02:48:49.133Z,2.28
2023-01-22T02:51:15.956Z,2.33
2023-01-22T02:53:42.855Z,2.38
2023-01-22T02:56:10.665Z,2.34
2023-01-22T02:58:37.705Z,2.35
2023-01-22T03:01:18.863Z,2.36
2023-01-22T03:03:50.095Z,2.29
2023-01-22T03:06:21.554Z,2.18
2023-01-22T03:08:50.569Z,2.18
2023-01-22T03:11:17.341Z,2.14
2023-01-22T03:14:02.638Z,2.08
2023-01-22T03:16:47.972Z,2.08
2023-01-22T03:19:33.213Z,2.17
2023-01-22T03:21:59.925Z,2.20
2023-01-22T03:24:26.787Z,2.21
2023-01-22T03:26:53.676Z,2.29
2023-01-22T03:29:20.471Z,2.23
2023-01-22T03:31:48.601Z,2.29
2023-01-22T03:34:17.172Z,2.23
2023-01-22T03:36:44.384Z,2.24
2023-01-22T03:39:11.873Z,2.28
2023-01-22T03:41:39.056Z,2.33
2023-01-22T03:44:06.307Z,2.34
2023-01-22T03:46:34.766Z,2.38
2023-01-22T03:49:01.551Z,2.32
2023-01-22T03:51:28.346Z,2.36
2023-01-22T03:53:55.201Z,2.37
2023-01-22T03:56:23.538Z,2.40
2023-01-22T03:58:50.802Z,2.41
2023-01-22T04:01:22.158Z,2.40
2023-01-22T04:03:49.805Z,2.41
2023-01-22T04:06:17.090Z,2.45
2023-01-22T04:08:45.313Z,2.34
2023-01-22T04:11:13.084Z,2.36
2023-01-22T04:13:40.988Z,2.32
2023-01-22T04:16:08.475Z,2.32
2023-01-22T04:18:35.490Z,2.32
2023-01-22T04:21:02.326Z,2.37
2023-01-22T04:23:29.095Z,2.34
2023-01-22T04:25:55.868Z,2.36
2023-01-22T04:28:22.620Z,2.35
2023-01-22T04:30:52.163Z,2.37
2023-01-22T04:33:19.026Z,2.40
2023-01-22T04:35:49.872Z,2.39
2023-01-22T04:38:16.708Z,2.34
2023-01-22T04:40:43.568Z,2.33
2023-01-22T04:43:10.675Z,2.33
2023-01-22T04:45:37.384Z,2.35
2023-01-22T04:48:04.349Z,2.34
2023-01-22T04:50:33.048Z,2.47
2023-01-22T04:53:00.673Z,2.51
2023-01-22T04:55:28.392Z,2.58
2023-01-22T04:57:56.594Z,2.59
2023-01-22T05:00:23.873Z,2.63
2023-01-22T05:02:50.681Z,2.66
2023-01-22T05:05:17.534Z,2.70
2023-01-22T05:07:44.528Z,2.72
2023-01-22T05:10:11.520Z,2.71
2023-01-22T05:12:38.213Z,2.66
2023-01-22T05:15:14.962Z,2.75
2023-01-22T05:17:49.381Z,2.80
2023-01-22T05:20:16.852Z,2.83
2023-01-22T05:22:44.293Z,2.85
2023-01-22T05:25:11.111Z,2.84
2023-01-22T05:27:37.831Z,2.84
2023-01-22T05:30:06.151Z,2.78
2023-01-22T05:32:32.929Z,2.79
2023-01-22T05:34:59.634Z,2.80
2023-01-22T05:37:26.395Z,2.88
2023-01-22T05:39:53.176Z,2.92
2023-01-22T05:42:20.979Z,2.95
2023-01-22T05:44:47.978Z,2.97
2023-01-22T05:47:14.947Z,2.95
2023-01-22T05:49:41.765Z,2.95
2023-01-22T05:52:10.827Z,2.95
2023-01-22T05:54:40.736Z,2.93
2023-01-22T05:57:07.775Z,2.86
2023-01-22T05:59:34.630Z,2.83
2023-01-22T06:02:01.627Z,2.81
2023-01-22T06:04:28.879Z,2.79
2023-01-22T06:06:55.747Z,2.82
2023-01-22T06:09:22.638Z,2.79
2023-01-22T06:11:49.415Z,2.70
2023-01-22T06:14:16.344Z,2.67
2023-01-22T06:16:43.134Z,2.74
2023-01-22T06:19:10.091Z,2.75
2023-01-22T06:21:36.890Z,2.80
2023-01-22T06:24:03.920Z,2.80
2023-01-22T06:26:30.717Z,2.79
2023-01-22T06:28:57.509Z,2.77
2023-01-22T06:31:24.361Z,2.75
2023-01-22T06:33:51.162Z,2.70
2023-01-22T06:36:17.857Z,2.72
2023-01-22T06:38:44.573Z,2.80
2023-01-22T06:41:11.370Z,2.63
2023-01-22T06:43:38.273Z,2.56
2023-01-22T06:46:05.461Z,2.59
2023-01-22T06:48:32.486Z,2.57
2023-01-22T06:51:00.139Z,2.56
2023-01-22T06:53:27.572Z,2.67
2023-01-22T06:55:54.569Z,2.70
2023-01-22T06:58:21.521Z,2.73
2023-01-22T07:00:48.355Z,2.71
2023-01-22T07:03:15.273Z,2.81
2023-01-22T07:05:42.100Z,2.90
2023-01-22T07:08:08.857Z,2.96
2023-01-22T07:10:35.813Z,3.01
2023-01-22T07:13:04.252Z,3.04
2023-01-22T07:15:31.121Z,3.02
2023-01-22T07:17:57.856Z,3.12
2023-01-22T07:20:24.897Z,3.16
2023-01-22T07:22:51.724Z,3.25
2023-01-22T07:25:21.442Z,3.29
2023-01-22T07:27:48.250Z,3.41
2023-01-22T07:30:15.054Z,3.56
2023-01-22T07:32:41.837Z,3.62
2023-01-22T07:35:08.783Z,3.62
2023-01-22T07:37:36.369Z,3.68
2023-01-22T07:40:03.535Z,3.78
2023-01-22T07:42:30.308Z,3.70
2023-01-22T07:44:57.116Z,3.73
2023-01-22T07:47:23.927Z,3.80
2023-01-22T07:49:50.638Z,3.87
2023-01-22T07:52:17.448Z,3.90
2023-01-22T07:54:44.257Z,3.89
2023-01-22T07:57:15.421Z,3.93
2023-01-22T07:59:42.845Z,3.96
2023-01-22T08:02:14.176Z,4.05
2023-01-22T08:04:42.099Z,4.10
2023-01-22T08:07:17.489Z,4.01
2023-01-22T08:09:44.703Z,3.93
2023-01-22T08:12:11.517Z,3.96
2023-01-22T08:14:38.222Z,4.05
2023-01-22T08:17:04.997Z,4.13
2023-01-22T08:19:31.857Z,4.19
2023-01-22T08:21:58.696Z,4.27
2023-01-22T08:24:25.437Z,4.34
2023-01-22T08:26:52.170Z,4.40
2023-01-22T08:29:19.118Z,4.53
2023-01-22T08:31:45.965Z,4.60
2023-01-22T08:34:12.855Z,4.62
2023-01-22T08:36:39.628Z,4.76
2023-01-22T08:39:06.317Z,4.84
2023-01-22T08:41:33.140Z,4.93
2023-01-22T08:43:59.807Z,4.98
2023-01-22T08:46:26.588Z,5.01
2023-01-22T08:48:53.409Z,5.02
2023-01-22T08:51:22.616Z,4.93
2023-01-22T08:53:49.726Z,4.93
2023-01-22T08:56:16.553Z,4.85
2023-01-22T08:58:43.302Z,4.75
2023-01-22T09:01:17.185Z,4.80
2023-01-22T09:03:44.124Z,4.86
2023-01-22T09:06:11.339Z,4.93
2023-01-22T09:08:38.547Z,4.93
2023-01-22T09:11:05.922Z,4.73
2023-01-22T09:13:32.803Z,4.75
2023-01-22T09:15:59.795Z,4.85
2023-01-22T09:18:26.593Z,4.88
2023-01-22T09:20:53.310Z,4.91
2023-01-22T09:23:22.225Z,4.92
2023-01-22T09:25:49.056Z,4.96
2023-01-22T09:28:15.867Z,4.90
2023-01-22T09:30:43.847Z,5.10
2023-01-22T09:33:10.637Z,5.29
2023-01-22T09:35:37.463Z,5.43
2023-01-22T09:38:05.665Z,5.49
2023-01-22T09:40:48.989Z,5.48
2023-01-22T09:43:18.691Z,5.50
2023-01-22T09:45:45.851Z,5.57
2023-01-22T09:48:15.422Z,5.70
2023-01-22T09:50:43.011Z,5.76
2023-01-22T09:53:14.217Z,5.62
2023-01-22T09:55:45.118Z,5.52
2023-01-22T09:58:19.124Z,5.44
2023-01-22T10:01:01.496Z,5.28
2023-01-22T10:03:41.602Z,5.16
2023-01-22T10:06:18.744Z,5.23
2023-01-22T10:09:09.636Z,5.32
2023-01-22T10:11:40.165Z,5.39
2023-01-22T10:14:09.680Z,5.36
2023-01-22T10:16:37.230Z,5.39
2023-01-22T10:19:26.444Z,5.56
2023-01-22T10:22:01.580Z,5.59
2023-01-22T10:24:29.240Z,5.44
2023-01-22T10:26:58.900Z,5.42
2023-01-22T10:29:34.913Z,5.44
2023-01-22T10:32:15.737Z,5.42
2023-01-22T10:34:42.575Z,5.40
2023-01-22T10:37:17.536Z,5.38
2023-01-22T10:39:46.520Z,5.34
2023-01-22T10:42:21.258Z,5.28
2023-01-22T10:44:47.992Z,5.21
2023-01-22T10:47:23.343Z,5.12
2023-01-22T10:50:04.298Z,5.20
2023-01-22T10:52:39.024Z,5.12
2023-01-22T10:55:07.463Z,5.05
2023-01-22T10:57:35.738Z,5.01
2023-01-22T11:00:07.867Z,4.96
2023-01-22T11:02:35.657Z,4.92
2023-01-22T11:05:36.673Z,4.99
2023-01-22T11:08:07.617Z,4.97
2023-01-22T11:10:44.702Z,4.99
2023-01-22T11:13:13.436Z,5.07
2023-01-22T11:15:44.003Z,5.09
2023-01-22T11:18:16.911Z,5.15
2023-01-22T11:20:49.799Z,5.24
2023-01-22T11:23:27.827Z,5.34
2023-01-22T11:26:03.716Z,5.29
2023-01-22T11:28:48.778Z,5.33
2023-01-22T11:31:40.381Z,5.33
2023-01-22T11:34:07.206Z,5.36
2023-01-22T11:36:39.936Z,5.33
2023-01-22T11:39:26.647Z,5.33
2023-01-22T11:42:04.951Z,5.26
2023-01-22T11:45:25.794Z,5.15
2023-01-22T11:48:04.384Z,5.07
2023-01-22T11:50:42.573Z,5.18
2023-01-22T11:53:31.149Z,5.23
2023-01-22T11:56:18.861Z,5.26
2023-01-22T11:58:48.036Z,5.33
2023-01-22T12:01:45.133Z,5.49
2023-01-22T12:04:40.201Z,5.51
2023-01-22T12:07:16.121Z,5.57
2023-01-22T12:09:42.867Z,5.63
2023-01-22T12:12:18.044Z,5.59
2023-01-22T12:14:49.993Z,5.57
2023-01-22T12:17:43.972Z,5.59
2023-01-22T12:20:31.769Z,5.57
2023-01-22T12:23:06.346Z,5.55
2023-01-22T12:25:47.704Z,5.55
2023-01-22T12:28:18.452Z,5.50
2023-01-22T12:30:56.477Z,5.52
2023-01-22T12:33:26.602Z,5.53
2023-01-22T12:35:56.504Z,5.50
2023-01-22T12:38:36.861Z,5.55
2023-01-22T12:41:21.413Z,5.61
2023-01-22T12:43:56.326Z,5.66
2023-01-22T12:46:37.348Z,5.66
2023-01-22T12:49:09.408Z,5.66
2023-01-22T12:51:44.857Z,5.71
2023-01-22T12:54:21.941Z,5.70
2023-01-22T12:56:50.289Z,5.74
2023-01-22T12:59:36.459Z,5.79
2023-01-22T13:02:06.673Z,5.76
2023-01-22T13:04:34.010Z,5.81
2023-01-22T13:07:23.661Z,5.78
2023-01-22T13:10:21.508Z,5.75
2023-01-22T13:12:54.157Z,5.73
2023-01-22T13:15:27.379Z,5.69
2023-01-22T13:18:06.428Z,5.72
2023-01-22T13:20:46.924Z,5.76
2023-01-22T13:23:15.009Z,5.75
2023-01-22T13:25:42.947Z,5.72
2023-01-22T13:28:19.204Z,5.73
2023-01-22T13:31:06.046Z,5.80
2023-01-22T13:33:32.976Z,5.82
2023-01-22T13:36:08.820Z,5.85
2023-01-22T13:38:35.541Z,5.88
2023-01-22T13:41:18.837Z,5.89
2023-01-22T13:43:45.730Z,5.92
2023-01-22T13:46:15.517Z,5.93
2023-01-22T13:48:42.441Z,5.94
2023-01-22T13:51:18.484Z,5.90
2023-01-22T13:53:50.335Z,5.91
2023-01-22T13:56:21.117Z,5.87
2023-01-22T13:58:49.416Z,5.87
2023-01-22T14:01:28.413Z,5.83
2023-01-22T14:04:00.899Z,5.84
2023-01-22T14:06:28.910Z,5.84
2023-01-22T14:08:57.486Z,5.86
2023-01-22T14:11:24.288Z,5.89
2023-01-22T14:13:52.951Z,5.93
2023-01-22T14:16:20.074Z,5.93
2023-01-22T14:18:47.244Z,5.95
2023-01-22T14:21:14.477Z,5.96
2023-01-22T14:23:42.725Z,5.95
2023-01-22T14:26:09.919Z,5.96
2023-01-22T14:28:37.119Z,5.98
2023-01-22T14:31:05.085Z,6.00
2023-01-22T14:33:33.236Z,6.02
2023-01-22T14:36:00.437Z,5.98
2023-01-22T14:38:28.487Z,5.97
2023-01-22T14:40:55.662Z,5.97
2023-01-22T14:43:22.920Z,5.92
2023-01-22T14:45:49.881Z,5.89
2023-01-22T14:48:18.964Z,5.91
2023-01-22T14:50:46.412Z,5.91
2023-01-22T14:53:14.099Z,5.92
2023-01-22T14:55:42.581Z,5.95
2023-01-22T14:58:10.182Z,5.87
2023-01-22T15:00:37.417Z,5.87
2023-01-22T15:03:05.222Z,5.87
2023-01-22T15:05:34.583Z,5.87
2023-01-22T15:08:02.275Z,5.87
2023-01-22T15:10:29.108Z,5.84
2023-01-22T15:12:56.143Z,5.84
2023-01-22T15:15:26.391Z,5.85
2023-01-22T15:17:57.207Z,5.86
2023-01-22T15:20:24.607Z,5.85
2023-01-22T15:22:51.836Z,5.82
2023-01-22T15:25:18.902Z,5.77
2023-01-22T15:27:45.864Z,5.75
2023-01-22T15:30:13.773Z,5.77
2023-01-22T15:32:40.750Z,5.59
2023-01-22T15:35:08.026Z,5.58
2023-01-22T15:37:34.935Z,5.61
2023-01-22T15:40:02.319Z,5.62
2023-01-22T15:42:29.189Z,5.60
2023-01-22T15:44:56.025Z,5.64
2023-01-22T15:47:22.965Z,5.62
2023-01-22T15:49:49.923Z,5.59
2023-01-22T15:52:16.618Z,5.59
2023-01-22T15:54:43.618Z,5.63
2023-01-22T15:57:10.811Z,5.64
2023-01-22T15:59:38.912Z,5.64
2023-01-22T16:02:05.972Z,5.61
2023-01-22T16:04:33.045Z,5.59
2023-01-22T16:07:00.192Z,5.59
2023-01-22T16:09:27.204Z,5.59
2023-01-22T16:11:54.081Z,5.60
2023-01-22T16:14:20.815Z,5.60
2023-01-22T16:16:47.733Z,5.62
2023-01-22T16:19:14.702Z,5.61
2023-01-22T16:21:41.705Z,5.60
2023-01-22T16:24:09.971Z,5.64
2023-01-22T16:26:37.041Z,5.67
2023-01-22T16:29:04.899Z,5.68
2023-01-22T16:31:33.454Z,5.68
2023-01-22T16:34:06.853Z,5.70
2023-01-22T16:36:33.958Z,5.69
2023-01-22T16:39:00.850Z,5.71
2023-01-22T16:41:29.880Z,5.70
2023-01-22T16:44:27.266Z,5.69
2023-01-22T16:46:57.128Z,5.70
2023-01-22T16:49:26.788Z,5.71
2023-01-22T16:51:56.225Z,5.73
2023-01-22T16:54:24.618Z,5.74
2023-01-22T16:56:51.620Z,5.75
2023-01-22T16:59:18.878Z,5.76
2023-01-22T17:01:46.137Z,5.73
2023-01-22T17:04:13.733Z,5.71
2023-01-22T17:06:48.444Z,5.70
2023-01-22T17:09:19.573Z,5.68
2023-01-22T17:11:50.572Z,5.66
2023-01-22T17:14:20.238Z,5.64
2023-01-22T17:16:48.082Z,5.63
2023-01-22T17:19:15.664Z,5.60
2023-01-22T17:21:43.089Z,5.60
2023-01-22T17:24:11.524Z,5.60
2023-01-22T17:26:38.956Z,5.59
2023-01-22T17:29:07.001Z,5.56
2023-01-22T17:31:34.132Z,5.56
2023-01-22T17:34:01.054Z,5.56
2023-01-22T17:36:28.481Z,5.56
2023-01-22T17:38:56.780Z,5.55
2023-01-22T17:41:25.283Z,5.52
2023-01-22T17:43:55.256Z,5.50
2023-01-22T17:46:33.090Z,5.54
2023-01-22T17:49:01.651Z,5.57
2023-01-22T17:51:29.207Z,5.57
2023-01-22T17:53:58.210Z,5.58
2023-01-22T17:56:27.725Z,5.55
2023-01-22T17:58:56.944Z,5.56
2023-01-22T18:01:27.885Z,5.53
2023-01-22T18:03:59.369Z,5.49
2023-01-22T18:06:26.559Z,5.48
2023-01-22T18:08:53.991Z,5.51
2023-01-22T18:11:26.456Z,5.50
2023-01-22T18:13:57.985Z,5.50
2023-01-22T18:16:27.176Z,5.49
2023-01-22T18:18:54.578Z,5.51
2023-01-22T18:21:21.971Z,5.51
2023-01-22T18:23:49.712Z,5.53
2023-01-22T18:26:22.599Z,5.56
2023-01-22T18:28:50.615Z,5.58
2023-01-22T18:31:19.186Z,5.61
2023-01-22T18:33:48.366Z,5.61
2023-01-22T18:36:27.000Z,5.64
2023-01-22T18:38:54.263Z,5.65
2023-01-22T18:41:26.303Z,5.67
2023-01-22T18:43:58.677Z,5.68
2023-01-22T18:46:28.723Z,5.68
2023-01-22T18:48:58.236Z,5.69
2023-01-22T18:51:28.148Z,5.69
2023-01-22T18:53:56.581Z,5.71
2023-01-22T18:56:25.499Z,5.72
2023-01-22T18:58:58.292Z,5.66
2023-01-22T19:01:28.056Z,5.60
2023-01-22T19:03:58.853Z,5.55
2023-01-22T19:06:28.335Z,5.48
2023-01-22T19:08:55.240Z,5.51
2023-01-22T19:11:22.579Z,5.54
2023-01-22T19:13:55.417Z,5.59
2023-01-22T19:16:23.255Z,5.62
2023-01-22T19:18:55.371Z,5.65
2023-01-22T19:21:23.748Z,5.66
2023-01-22T19:23:53.351Z,5.66
2023-01-22T19:26:23.033Z,5.63
2023-01-22T19:28:56.048Z,5.60
2023-01-22T19:31:24.607Z,5.57
2023-01-22T19:33:53.056Z,5.55
2023-01-22T19:36:21.675Z,5.51
2023-01-22T19:38:48.620Z,5.45
2023-01-22T19:41:17.236Z,5.41
2023-01-22T19:43:44.036Z,5.43
2023-01-22T19:46:13.603Z,5.43
2023-01-22T19:48:41.051Z,5.35
2023-01-22T19:51:11.848Z,5.24
2023-01-22T19:53:40.271Z,5.08
2023-01-22T19:56:18.834Z,4.95
2023-01-22T19:58:45.935Z,4.82
2023-01-22T20:01:13.547Z,4.71
2023-01-22T20:03:40.689Z,4.58
2023-01-22T20:06:09.155Z,4.47
2023-01-22T20:08:37.070Z,4.34
2023-01-22T20:11:05.449Z,4.25
2023-01-22T20:13:33.072Z,4.17
2023-01-22T20:16:01.073Z,4.11
2023-01-22T20:18:28.698Z,4.10
2023-01-22T20:20:57.230Z,4.05
2023-01-22T20:23:25.597Z,3.92
2023-01-22T20:25:52.756Z,3.79
2023-01-22T20:28:20.501Z,3.69
2023-01-22T20:30:59.049Z,3.56
2023-01-22T20:33:26.762Z,3.47
2023-01-22T20:36:03.591Z,3.35
2023-01-22T20:38:30.882Z,3.25
2023-01-22T20:41:09.099Z,3.16
2023-01-22T20:43:39.407Z,3.05
2023-01-22T20:46:10.381Z,2.96
2023-01-22T20:48:37.559Z,2.89
2023-01-22T20:51:05.059Z,2.78
2023-01-22T20:53:31.896Z,2.71
2023-01-22T20:56:00.387Z,2.66
2023-01-22T20:58:27.841Z,2.61
2023-01-22T21:00:54.850Z,2.55
2023-01-22T21:03:24.115Z,2.46
2023-01-22T21:05:51.142Z,2.40
2023-01-22T21:08:18.191Z,2.29
2023-01-22T21:10:55.783Z,2.25
2023-01-22T21:13:23.640Z,2.18
2023-01-22T21:15:51.587Z,2.16
2023-01-22T21:18:18.957Z,2.09
2023-01-22T21:20:46.042Z,1.98
2023-01-22T21:23:13.582Z,1.92
2023-01-22T21:25:40.615Z,1.81
2023-01-22T21:28:07.711Z,1.74
2023-01-22T21:30:34.971Z,1.76
2023-01-22T21:33:01.805Z,1.77
2023-01-22T21:35:28.566Z,1.70
2023-01-22T21:37:55.642Z,1.64
2023-01-22T21:40:22.432Z,1.56
2023-01-22T21:43:08.895Z,1.58
2023-01-22T21:45:59.202Z,1.58
2023-01-22T21:48:27.674Z,1.56
2023-01-22T21:50:54.863Z,1.56
2023-01-22T21:53:21.697Z,1.56
2023-01-22T21:55:54.656Z,1.55
2023-01-22T21:58:21.458Z,1.61
2023-01-22T22:00:48.293Z,1.64
2023-01-22T22:03:15.998Z,1.65
2023-01-22T22:05:42.932Z,1.59
2023-01-22T22:08:09.654Z,1.62
2023-01-22T22:10:36.390Z,1.60
2023-01-22T22:13:03.452Z,1.67
2023-01-22T22:15:30.335Z,1.66
2023-01-22T22:17:57.109Z,1.72
2023-01-22T22:20:23.875Z,1.73
2023-01-22T22:22:50.595Z,1.67
2023-01-22T22:25:17.347Z,1.67
2023-01-22T22:27:44.077Z,1.62
2023-01-22T22:30:11.364Z,1.57
2023-01-22T22:32:38.021Z,1.52
2023-01-22T22:35:05.231Z,1.50
2023-01-22T22:37:31.951Z,1.53
2023-01-22T22:39:58.665Z,1.59
2023-01-22T22:42:25.437Z,1.56
2023-01-22T22:44:52.139Z,1.45
2023-01-22T22:47:18.874Z,1.35
2023-01-22T22:49:45.671Z,1.27
2023-01-22T22:52:13.286Z,1.20
2023-01-22T22:54:40.064Z,1.13
2023-01-22T22:59:33.622Z,1.02
2023-01-22T23:02:00.355Z,0.95
2023-01-22T23:04:27.140Z,0.89
2023-01-22T23:06:54.275Z,0.72
2023-01-22T23:09:21.222Z,0.73
2023-01-22T23:11:51.516Z,0.74
2023-01-22T23:14:18.267Z,0.70
2023-01-22T23:16:45.008Z,0.68
2023-01-22T23:19:17.551Z,0.69
2023-01-22T23:21:44.885Z,0.68
2023-01-22T23:24:13.615Z,0.64
2023-01-22T23:26:42.527Z,0.61
2023-01-22T23:29:11.144Z,0.54
2023-01-22T23:31:39.269Z,0.52
2023-01-22T23:34:08.357Z,0.51
2023-01-22T23:36:35.850Z,0.48
2023-01-22T23:39:03.611Z,0.44
2023-01-22T23:41:30.449Z,0.42
2023-01-22T23:43:57.204Z,0.40
2023-01-22T23:46:26.212Z,0.39
2023-01-22T23:48:54.320Z,0.39
2023-01-22T23:51:21.645Z,0.41
2023-01-22T23:53:53.017Z,0.43
2023-01-22T23:56:21.510Z,0.54
2023-01-22T23:58:48.655Z,0.55
